sensor_id;sensor_type;location;lat;lon;timestamp;temperature;humidity
25716;DHT22;13573;50.936;4.328;2022-07-15T00:03:38;17.20;99.90
25716;DHT22;13573;50.936;4.328;2022-07-15T00:06:06;17.20;99.90
25716;DHT22;13573;50.936;4.328;2022-07-15T00:08:32;17.20;99.90
25716;DHT22;13573;50.936;4.328;2022-07-15T00:10:59;16.70;99.90
25716;DHT22;13573;50.936;4.328;2022-07-15T00:15:52;16.60;99.90
25716;DHT22;13573;50.936;4.328;2022-07-15T00:18:19;16.80;99.90
25716;DHT22;13573;50.936;4.328;2022-07-15T00:20:46;14.70;99.90
25716;DHT22;13573;50.936;4.328;2022-07-15T00:23:13;15.70;99.90
25716;DHT22;13573;50.936;4.328;2022-07-15T00:25:41;15.70;99.90
25716;DHT22;13573;50.936;4.328;2022-07-15T00:33:04;15.90;99.90
25716;DHT22;13573;50.936;4.328;2022-07-15T00:35:32;16.20;99.90
25716;DHT22;13573;50.936;4.328;2022-07-15T00:37:59;16.40;99.90
25716;DHT22;13573;50.936;4.328;2022-07-15T00:40:27;16.40;99.90
25716;DHT22;13573;50.936;4.328;2022-07-15T00:42:54;16.00;99.90
25716;DHT22;13573;50.936;4.328;2022-07-15T00:45:23;15.80;99.90
25716;DHT22;13573;50.936;4.328;2022-07-15T00:47:53;15.80;99.90
25716;DHT22;13573;50.936;4.328;2022-07-15T00:50:25;15.80;99.90
25716;DHT22;13573;50.936;4.328;2022-07-15T00:52:55;15.90;99.90
25716;DHT22;13573;50.936;4.328;2022-07-15T00:55:24;15.20;99.90
25716;DHT22;13573;50.936;4.328;2022-07-15T00:57:55;15.80;99.90
25716;DHT22;13573;50.936;4.328;2022-07-15T01:02:50;14.80;99.90
25716;DHT22;13573;50.936;4.328;2022-07-15T01:07:47;17.00;99.90
25716;DHT22;13573;50.936;4.328;2022-07-15T01:10:17;15.60;99.90
25716;DHT22;13573;50.936;4.328;2022-07-15T01:12:46;15.80;99.90
25716;DHT22;13573;50.936;4.328;2022-07-15T01:17:43;15.60;99.90
25716;DHT22;13573;50.936;4.328;2022-07-15T01:20:11;15.70;99.90
25716;DHT22;13573;50.936;4.328;2022-07-15T01:22:38;15.70;99.90
25716;DHT22;13573;50.936;4.328;2022-07-15T01:25:05;15.50;99.90
25716;DHT22;13573;50.936;4.328;2022-07-15T01:27:32;15.30;99.90
25716;DHT22;13573;50.936;4.328;2022-07-15T01:30:00;14.20;99.90
25716;DHT22;13573;50.936;4.328;2022-07-15T01:32:28;16.00;99.90
25716;DHT22;13573;50.936;4.328;2022-07-15T01:37:24;15.70;99.90
25716;DHT22;13573;50.936;4.328;2022-07-15T01:39:50;14.50;99.90
25716;DHT22;13573;50.936;4.328;2022-07-15T01:42:17;14.80;99.90
25716;DHT22;13573;50.936;4.328;2022-07-15T01:44:44;15.10;99.90
25716;DHT22;13573;50.936;4.328;2022-07-15T01:47:10;14.90;99.90
25716;DHT22;13573;50.936;4.328;2022-07-15T01:49:37;15.20;99.90
25716;DHT22;13573;50.936;4.328;2022-07-15T01:52:04;15.10;99.90
25716;DHT22;13573;50.936;4.328;2022-07-15T01:54:33;15.60;99.90
25716;DHT22;13573;50.936;4.328;2022-07-15T01:57:01;15.40;99.90
25716;DHT22;13573;50.936;4.328;2022-07-15T01:59:29;15.20;99.90
25716;DHT22;13573;50.936;4.328;2022-07-15T02:01:57;15.40;99.90
25716;DHT22;13573;50.936;4.328;2022-07-15T02:06:50;14.80;99.90
25716;DHT22;13573;50.936;4.328;2022-07-15T02:09:17;14.50;99.90
25716;DHT22;13573;50.936;4.328;2022-07-15T02:11:45;14.70;99.90
25716;DHT22;13573;50.936;4.328;2022-07-15T02:14:12;15.00;99.90
25716;DHT22;13573;50.936;4.328;2022-07-15T02:16:39;15.00;99.90
25716;DHT22;13573;50.936;4.328;2022-07-15T02:21:34;14.10;99.90
25716;DHT22;13573;50.936;4.328;2022-07-15T02:24:02;15.10;99.90
25716;DHT22;13573;50.936;4.328;2022-07-15T02:26:30;15.00;99.90
25716;DHT22;13573;50.936;4.328;2022-07-15T02:28:57;13.70;99.90
25716;DHT22;13573;50.936;4.328;2022-07-15T02:31:23;14.80;99.90
25716;DHT22;13573;50.936;4.328;2022-07-15T02:33:50;14.80;99.90
25716;DHT22;13573;50.936;4.328;2022-07-15T02:36:17;14.60;99.90
25716;DHT22;13573;50.936;4.328;2022-07-15T02:41:10;14.30;99.90
25716;DHT22;13573;50.936;4.328;2022-07-15T02:46:08;14.50;99.90
25716;DHT22;13573;50.936;4.328;2022-07-15T02:53:30;14.70;99.90
25716;DHT22;13573;50.936;4.328;2022-07-15T02:56:03;14.60;99.90
25716;DHT22;13573;50.936;4.328;2022-07-15T02:58:30;14.00;99.90
25716;DHT22;13573;50.936;4.328;2022-07-15T03:00:58;14.10;99.90
25716;DHT22;13573;50.936;4.328;2022-07-15T03:03:25;15.30;99.90
25716;DHT22;13573;50.936;4.328;2022-07-15T03:05:56;14.70;99.90
25716;DHT22;13573;50.936;4.328;2022-07-15T03:08:24;14.20;99.90
25716;DHT22;13573;50.936;4.328;2022-07-15T03:13:18;14.20;99.90
25716;DHT22;13573;50.936;4.328;2022-07-15T03:15:44;14.30;99.90
25716;DHT22;13573;50.936;4.328;2022-07-15T03:18:12;14.20;99.90
25716;DHT22;13573;50.936;4.328;2022-07-15T03:20:39;13.90;99.90
25716;DHT22;13573;50.936;4.328;2022-07-15T03:23:05;14.10;99.90
25716;DHT22;13573;50.936;4.328;2022-07-15T03:25:32;13.30;99.90
25716;DHT22;13573;50.936;4.328;2022-07-15T03:27:59;12.90;99.90
25716;DHT22;13573;50.936;4.328;2022-07-15T03:30:26;14.30;99.90
25716;DHT22;13573;50.936;4.328;2022-07-15T03:32:55;13.50;99.90
25716;DHT22;13573;50.936;4.328;2022-07-15T03:35:22;14.30;99.90
25716;DHT22;13573;50.936;4.328;2022-07-15T03:37:50;13.90;99.90
25716;DHT22;13573;50.936;4.328;2022-07-15T03:40:17;15.20;99.90
25716;DHT22;13573;50.936;4.328;2022-07-15T03:42:44;13.80;99.90
25716;DHT22;13573;50.936;4.328;2022-07-15T03:47:38;14.10;99.90
25716;DHT22;13573;50.936;4.328;2022-07-15T03:50:05;14.30;99.90
25716;DHT22;13573;50.936;4.328;2022-07-15T03:52:32;13.80;99.90
25716;DHT22;13573;50.936;4.328;2022-07-15T03:54:59;13.60;99.90
25716;DHT22;13573;50.936;4.328;2022-07-15T03:57:25;14.10;99.90
25716;DHT22;13573;50.936;4.328;2022-07-15T03:59:52;12.70;99.90
25716;DHT22;13573;50.936;4.328;2022-07-15T04:02:20;14.10;99.90
25716;DHT22;13573;50.936;4.328;2022-07-15T04:04:47;14.40;99.90
25716;DHT22;13573;50.936;4.328;2022-07-15T04:07:13;14.60;99.90
25716;DHT22;13573;50.936;4.328;2022-07-15T04:09:40;15.20;99.90
25716;DHT22;13573;50.936;4.328;2022-07-15T04:12:07;14.30;99.90
25716;DHT22;13573;50.936;4.328;2022-07-15T04:14:34;14.70;99.90
25716;DHT22;13573;50.936;4.328;2022-07-15T04:17:01;15.80;99.90
25716;DHT22;13573;50.936;4.328;2022-07-15T04:19:29;13.80;99.90
25716;DHT22;13573;50.936;4.328;2022-07-15T04:21:55;14.70;99.90
25716;DHT22;13573;50.936;4.328;2022-07-15T04:26:49;14.00;99.90
25716;DHT22;13573;50.936;4.328;2022-07-15T04:29:16;14.10;99.90
25716;DHT22;13573;50.936;4.328;2022-07-15T04:31:43;15.20;99.90
25716;DHT22;13573;50.936;4.328;2022-07-15T04:34:10;15.00;99.90
25716;DHT22;13573;50.936;4.328;2022-07-15T04:36:36;14.20;99.90
25716;DHT22;13573;50.936;4.328;2022-07-15T04:39:03;15.00;99.90
25716;DHT22;13573;50.936;4.328;2022-07-15T04:41:29;15.10;99.90
25716;DHT22;13573;50.936;4.328;2022-07-15T04:43:59;14.90;99.90
25716;DHT22;13573;50.936;4.328;2022-07-15T04:46:25;14.30;99.90
25716;DHT22;13573;50.936;4.328;2022-07-15T04:48:54;15.90;99.90
25716;DHT22;13573;50.936;4.328;2022-07-15T04:51:27;15.30;99.90
25716;DHT22;13573;50.936;4.328;2022-07-15T04:53:53;15.50;99.90
25716;DHT22;13573;50.936;4.328;2022-07-15T04:58:47;16.10;99.90
25716;DHT22;13573;50.936;4.328;2022-07-15T05:01:13;15.60;99.90
25716;DHT22;13573;50.936;4.328;2022-07-15T05:03:40;15.70;99.90
25716;DHT22;13573;50.936;4.328;2022-07-15T05:06:08;15.50;99.90
25716;DHT22;13573;50.936;4.328;2022-07-15T05:08:34;15.90;99.90
25716;DHT22;13573;50.936;4.328;2022-07-15T05:11:01;15.50;99.90
25716;DHT22;13573;50.936;4.328;2022-07-15T05:13:28;15.80;99.90
25716;DHT22;13573;50.936;4.328;2022-07-15T05:18:21;15.70;99.90
25716;DHT22;13573;50.936;4.328;2022-07-15T05:20:48;16.60;99.90
25716;DHT22;13573;50.936;4.328;2022-07-15T05:23:16;16.20;99.90
25716;DHT22;13573;50.936;4.328;2022-07-15T05:25:43;17.10;99.90
25716;DHT22;13573;50.936;4.328;2022-07-15T05:33:09;18.20;99.90
25716;DHT22;13573;50.936;4.328;2022-07-15T05:35:36;18.70;99.90
25716;DHT22;13573;50.936;4.328;2022-07-15T05:38:02;18.50;99.90
25716;DHT22;13573;50.936;4.328;2022-07-15T05:40:30;17.60;99.90
25716;DHT22;13573;50.936;4.328;2022-07-15T05:45:24;19.90;99.90
25716;DHT22;13573;50.936;4.328;2022-07-15T05:47:51;20.00;99.90
25716;DHT22;13573;50.936;4.328;2022-07-15T05:50:19;20.40;99.90
25716;DHT22;13573;50.936;4.328;2022-07-15T05:52:46;20.60;99.90
25716;DHT22;13573;50.936;4.328;2022-07-15T05:55:14;20.70;99.90
25716;DHT22;13573;50.936;4.328;2022-07-15T05:57:41;21.10;99.90
25716;DHT22;13573;50.936;4.328;2022-07-15T06:00:09;21.50;99.90
25716;DHT22;13573;50.936;4.328;2022-07-15T06:02:36;20.50;99.90
25716;DHT22;13573;50.936;4.328;2022-07-15T06:05:03;22.00;99.90
25716;DHT22;13573;50.936;4.328;2022-07-15T06:07:31;20.70;99.90
25716;DHT22;13573;50.936;4.328;2022-07-15T06:09:59;22.50;99.90
25716;DHT22;13573;50.936;4.328;2022-07-15T06:12:26;22.80;99.90
25716;DHT22;13573;50.936;4.328;2022-07-15T06:14:54;23.00;99.90
25716;DHT22;13573;50.936;4.328;2022-07-15T06:17:21;23.40;99.90
25716;DHT22;13573;50.936;4.328;2022-07-15T06:19:48;23.40;99.90
25716;DHT22;13573;50.936;4.328;2022-07-15T06:22:14;23.60;99.90
25716;DHT22;13573;50.936;4.328;2022-07-15T06:24:41;23.60;99.90
25716;DHT22;13573;50.936;4.328;2022-07-15T06:29:34;23.40;99.90
25716;DHT22;13573;50.936;4.328;2022-07-15T06:32:01;23.20;99.90
25716;DHT22;13573;50.936;4.328;2022-07-15T06:36:54;22.00;99.90
25716;DHT22;13573;50.936;4.328;2022-07-15T06:39:21;23.40;99.90
25716;DHT22;13573;50.936;4.328;2022-07-15T06:41:48;24.00;99.90
25716;DHT22;13573;50.936;4.328;2022-07-15T06:44:14;23.70;99.90
25716;DHT22;13573;50.936;4.328;2022-07-15T06:46:42;22.70;99.90
25716;DHT22;13573;50.936;4.328;2022-07-15T06:51:36;23.70;99.90
25716;DHT22;13573;50.936;4.328;2022-07-15T06:54:05;24.60;99.90
25716;DHT22;13573;50.936;4.328;2022-07-15T06:56:33;24.70;99.90
25716;DHT22;13573;50.936;4.328;2022-07-15T06:59:00;24.30;99.90
25716;DHT22;13573;50.936;4.328;2022-07-15T07:01:27;24.30;99.90
25716;DHT22;13573;50.936;4.328;2022-07-15T07:03:54;25.40;99.90
25716;DHT22;13573;50.936;4.328;2022-07-15T07:06:20;24.90;99.90
25716;DHT22;13573;50.936;4.328;2022-07-15T07:08:47;24.10;99.90
25716;DHT22;13573;50.936;4.328;2022-07-15T07:11:15;23.40;99.90
25716;DHT22;13573;50.936;4.328;2022-07-15T07:13:43;24.80;99.90
25716;DHT22;13573;50.936;4.328;2022-07-15T07:16:10;23.10;99.90
25716;DHT22;13573;50.936;4.328;2022-07-15T07:18:36;25.60;99.90
25716;DHT22;13573;50.936;4.328;2022-07-15T07:21:03;25.10;99.90
25716;DHT22;13573;50.936;4.328;2022-07-15T07:23:30;24.60;99.90
25716;DHT22;13573;50.936;4.328;2022-07-15T07:26:00;24.70;99.90
25716;DHT22;13573;50.936;4.328;2022-07-15T07:28:30;25.80;99.90
25716;DHT22;13573;50.936;4.328;2022-07-15T07:30:56;25.90;99.90
25716;DHT22;13573;50.936;4.328;2022-07-15T07:33:23;26.30;99.90
25716;DHT22;13573;50.936;4.328;2022-07-15T07:35:50;26.50;99.90
25716;DHT22;13573;50.936;4.328;2022-07-15T07:38:18;26.60;99.90
25716;DHT22;13573;50.936;4.328;2022-07-15T07:40:46;26.50;99.90
25716;DHT22;13573;50.936;4.328;2022-07-15T07:43:16;26.00;99.90
25716;DHT22;13573;50.936;4.328;2022-07-15T07:45:43;24.10;99.90
25716;DHT22;13573;50.936;4.328;2022-07-15T07:48:11;27.70;99.90
25716;DHT22;13573;50.936;4.328;2022-07-15T07:50:39;28.40;99.90
25716;DHT22;13573;50.936;4.328;2022-07-15T07:53:06;28.00;99.90
25716;DHT22;13573;50.936;4.328;2022-07-15T07:55:33;28.90;99.90
25716;DHT22;13573;50.936;4.328;2022-07-15T07:58:01;28.90;98.50
25716;DHT22;13573;50.936;4.328;2022-07-15T08:00:30;28.00;99.90
25716;DHT22;13573;50.936;4.328;2022-07-15T08:02:59;28.80;99.90
25716;DHT22;13573;50.936;4.328;2022-07-15T08:05:27;29.30;99.90
25716;DHT22;13573;50.936;4.328;2022-07-15T08:08:12;29.90;98.30
25716;DHT22;13573;50.936;4.328;2022-07-15T08:10:40;29.90;96.70
25716;DHT22;13573;50.936;4.328;2022-07-15T08:13:07;30.30;98.20
25716;DHT22;13573;50.936;4.328;2022-07-15T08:15:34;29.70;98.30
25716;DHT22;13573;50.936;4.328;2022-07-15T08:18:01;27.40;97.60
25716;DHT22;13573;50.936;4.328;2022-07-15T08:20:28;28.60;98.60
25716;DHT22;13573;50.936;4.328;2022-07-15T08:22:56;27.90;99.10
25716;DHT22;13573;50.936;4.328;2022-07-15T08:25:28;28.40;98.90
25716;DHT22;13573;50.936;4.328;2022-07-15T08:27:56;28.60;99.00
25716;DHT22;13573;50.936;4.328;2022-07-15T08:30:26;28.80;95.80
25716;DHT22;13573;50.936;4.328;2022-07-15T08:32:53;27.80;97.60
25716;DHT22;13573;50.936;4.328;2022-07-15T08:35:22;27.40;98.40
25716;DHT22;13573;50.936;4.328;2022-07-15T08:37:49;26.40;98.80
25716;DHT22;13573;50.936;4.328;2022-07-15T08:40:16;26.50;99.20
25716;DHT22;13573;50.936;4.328;2022-07-15T08:42:43;27.60;98.70
25716;DHT22;13573;50.936;4.328;2022-07-15T08:45:14;27.30;97.50
25716;DHT22;13573;50.936;4.328;2022-07-15T08:47:43;28.20;97.30
25716;DHT22;13573;50.936;4.328;2022-07-15T08:50:13;29.00;96.90
25716;DHT22;13573;50.936;4.328;2022-07-15T08:52:43;29.50;93.80
25716;DHT22;13573;50.936;4.328;2022-07-15T08:55:10;28.60;96.40
25716;DHT22;13573;50.936;4.328;2022-07-15T08:57:37;28.80;96.30
25716;DHT22;13573;50.936;4.328;2022-07-15T09:00:04;28.90;94.20
25716;DHT22;13573;50.936;4.328;2022-07-15T09:02:34;29.10;95.70
25716;DHT22;13573;50.936;4.328;2022-07-15T09:07:57;28.90;96.60
25716;DHT22;13573;50.936;4.328;2022-07-15T09:13:01;31.00;95.20
25716;DHT22;13573;50.936;4.328;2022-07-15T09:15:32;29.00;95.40
25716;DHT22;13573;50.936;4.328;2022-07-15T09:18:09;29.80;92.70
25716;DHT22;13573;50.936;4.328;2022-07-15T09:20:37;31.00;93.90
25716;DHT22;13573;50.936;4.328;2022-07-15T09:23:04;31.00;90.90
25716;DHT22;13573;50.936;4.328;2022-07-15T09:25:32;31.10;93.20
25716;DHT22;13573;50.936;4.328;2022-07-15T09:28:01;30.50;93.40
25716;DHT22;13573;50.936;4.328;2022-07-15T09:30:32;30.70;93.70
25716;DHT22;13573;50.936;4.328;2022-07-15T09:33:09;28.60;93.70
25716;DHT22;13573;50.936;4.328;2022-07-15T09:35:41;30.40;93.40
25716;DHT22;13573;50.936;4.328;2022-07-15T09:38:15;30.40;93.50
25716;DHT22;13573;50.936;4.328;2022-07-15T09:43:13;30.80;92.20
25716;DHT22;13573;50.936;4.328;2022-07-15T09:45:40;30.70;90.00
25716;DHT22;13573;50.936;4.328;2022-07-15T09:48:09;31.50;90.40
25716;DHT22;13573;50.936;4.328;2022-07-15T09:50:39;30.20;91.90
25716;DHT22;13573;50.936;4.328;2022-07-15T09:53:11;28.70;92.30
25716;DHT22;13573;50.936;4.328;2022-07-15T09:55:40;31.40;92.00
25716;DHT22;13573;50.936;4.328;2022-07-15T10:00:37;31.40;93.20
25716;DHT22;13573;50.936;4.328;2022-07-15T10:03:04;30.80;91.50
25716;DHT22;13573;50.936;4.328;2022-07-15T10:05:32;32.40;90.70
25716;DHT22;13573;50.936;4.328;2022-07-15T10:08:01;33.30;87.10
25716;DHT22;13573;50.936;4.328;2022-07-15T10:10:32;33.60;86.50
25716;DHT22;13573;50.936;4.328;2022-07-15T10:19:17;33.80;82.30
25716;DHT22;13573;50.936;4.328;2022-07-15T10:21:45;33.80;85.90
25716;DHT22;13573;50.936;4.328;2022-07-15T10:24:39;34.30;83.00
25716;DHT22;13573;50.936;4.328;2022-07-15T10:27:15;35.10;83.60
25716;DHT22;13573;50.936;4.328;2022-07-15T10:29:41;33.80;85.20
25716;DHT22;13573;50.936;4.328;2022-07-15T10:32:08;34.10;84.30
25716;DHT22;13573;50.936;4.328;2022-07-15T10:34:36;33.90;82.90
25716;DHT22;13573;50.936;4.328;2022-07-15T10:42:12;33.40;84.30
25716;DHT22;13573;50.936;4.328;2022-07-15T10:44:49;34.30;84.30
25716;DHT22;13573;50.936;4.328;2022-07-15T10:47:17;34.60;80.80
25716;DHT22;13573;50.936;4.328;2022-07-15T10:49:48;32.80;79.80
25716;DHT22;13573;50.936;4.328;2022-07-15T10:54:46;33.90;79.20
25716;DHT22;13573;50.936;4.328;2022-07-15T10:57:14;34.90;79.00
25716;DHT22;13573;50.936;4.328;2022-07-15T10:59:57;33.40;81.00
25716;DHT22;13573;50.936;4.328;2022-07-15T11:02:25;32.40;82.80
25716;DHT22;13573;50.936;4.328;2022-07-15T11:05:17;33.40;81.90
25716;DHT22;13573;50.936;4.328;2022-07-15T11:07:24;31.90;80.20
25716;DHT22;13573;50.936;4.328;2022-07-15T11:09:54;32.90;78.50
25716;DHT22;13573;50.936;4.328;2022-07-15T11:12:54;35.00;76.10
25716;DHT22;13573;50.936;4.328;2022-07-15T11:15:12;34.80;76.80
25716;DHT22;13573;50.936;4.328;2022-07-15T11:20:12;36.20;75.20
25716;DHT22;13573;50.936;4.328;2022-07-15T11:25:16;34.00;77.50
25716;DHT22;13573;50.936;4.328;2022-07-15T11:28:17;34.30;76.70
25716;DHT22;13573;50.936;4.328;2022-07-15T11:30:33;34.00;77.50
25716;DHT22;13573;50.936;4.328;2022-07-15T11:33:03;34.60;76.80
25716;DHT22;13573;50.936;4.328;2022-07-15T11:35:32;35.20;74.10
25716;DHT22;13573;50.936;4.328;2022-07-15T11:40:30;33.80;77.60
25716;DHT22;13573;50.936;4.328;2022-07-15T11:43:03;32.30;80.00
25716;DHT22;13573;50.936;4.328;2022-07-15T11:45:38;33.30;78.40
25716;DHT22;13573;50.936;4.328;2022-07-15T11:48:05;33.00;79.10
25716;DHT22;13573;50.936;4.328;2022-07-15T11:50:36;33.60;74.70
25716;DHT22;13573;50.936;4.328;2022-07-15T11:55:47;33.30;75.80
25716;DHT22;13573;50.936;4.328;2022-07-15T11:58:07;33.80;78.10
25716;DHT22;13573;50.936;4.328;2022-07-15T12:00:33;33.80;74.20
25716;DHT22;13573;50.936;4.328;2022-07-15T12:03:06;32.50;79.10
25716;DHT22;13573;50.936;4.328;2022-07-15T12:05:33;32.00;76.40
25716;DHT22;13573;50.936;4.328;2022-07-15T12:10:34;33.80;72.10
25716;DHT22;13573;50.936;4.328;2022-07-15T12:13:00;34.60;72.40
25716;DHT22;13573;50.936;4.328;2022-07-15T12:15:28;35.80;71.40
25716;DHT22;13573;50.936;4.328;2022-07-15T12:17:55;35.90;71.10
25716;DHT22;13573;50.936;4.328;2022-07-15T12:20:22;36.20;74.00
25716;DHT22;13573;50.936;4.328;2022-07-15T12:23:02;35.70;72.30
25716;DHT22;13573;50.936;4.328;2022-07-15T12:25:29;35.00;73.90
25716;DHT22;13573;50.936;4.328;2022-07-15T12:27:56;35.20;74.60
25716;DHT22;13573;50.936;4.328;2022-07-15T12:30:31;33.20;75.10
25716;DHT22;13573;50.936;4.328;2022-07-15T12:35:37;33.10;77.10
25716;DHT22;13573;50.936;4.328;2022-07-15T12:38:04;32.80;79.60
25716;DHT22;13573;50.936;4.328;2022-07-15T12:40:31;32.70;73.80
25716;DHT22;13573;50.936;4.328;2022-07-15T12:42:58;31.90;79.30
25716;DHT22;13573;50.936;4.328;2022-07-15T12:45:34;32.00;82.30
25716;DHT22;13573;50.936;4.328;2022-07-15T12:48:06;32.00;78.30
25716;DHT22;13573;50.936;4.328;2022-07-15T12:50:58;33.50;77.80
25716;DHT22;13573;50.936;4.328;2022-07-15T12:53:27;34.90;75.50
25716;DHT22;13573;50.936;4.328;2022-07-15T12:55:58;35.30;74.20
25716;DHT22;13573;50.936;4.328;2022-07-15T12:58:29;34.10;74.50
25716;DHT22;13573;50.936;4.328;2022-07-15T13:01:05;34.00;74.70
25716;DHT22;13573;50.936;4.328;2022-07-15T13:03:32;33.50;75.50
25716;DHT22;13573;50.936;4.328;2022-07-15T13:05:59;32.90;76.50
25716;DHT22;13573;50.936;4.328;2022-07-15T13:08:31;34.40;75.80
25716;DHT22;13573;50.936;4.328;2022-07-15T13:11:02;35.10;73.50
25716;DHT22;13573;50.936;4.328;2022-07-15T13:13:33;35.80;70.10
25716;DHT22;13573;50.936;4.328;2022-07-15T13:16:01;35.90;69.40
25716;DHT22;13573;50.936;4.328;2022-07-15T13:18:29;35.70;69.60
25716;DHT22;13573;50.936;4.328;2022-07-15T13:20:57;35.80;71.00
25716;DHT22;13573;50.936;4.328;2022-07-15T13:23:24;36.40;70.50
25716;DHT22;13573;50.936;4.328;2022-07-15T13:25:52;35.10;72.80
25716;DHT22;13573;50.936;4.328;2022-07-15T13:28:21;35.00;69.80
25716;DHT22;13573;50.936;4.328;2022-07-15T13:30:48;34.90;69.70
25716;DHT22;13573;50.936;4.328;2022-07-15T13:33:15;34.30;70.50
25716;DHT22;13573;50.936;4.328;2022-07-15T13:35:43;32.10;76.40
25716;DHT22;13573;50.936;4.328;2022-07-15T13:38:09;30.30;77.60
25716;DHT22;13573;50.936;4.328;2022-07-15T13:40:36;31.30;74.20
25716;DHT22;13573;50.936;4.328;2022-07-15T13:43:03;32.10;79.00
25716;DHT22;13573;50.936;4.328;2022-07-15T13:47:57;34.70;76.30
25716;DHT22;13573;50.936;4.328;2022-07-15T13:50:23;33.50;72.40
25716;DHT22;13573;50.936;4.328;2022-07-15T13:52:58;34.90;73.90
25716;DHT22;13573;50.936;4.328;2022-07-15T13:55:25;34.40;73.50
25716;DHT22;13573;50.936;4.328;2022-07-15T13:57:52;34.20;71.80
25716;DHT22;13573;50.936;4.328;2022-07-15T14:00:22;34.20;73.80
25716;DHT22;13573;50.936;4.328;2022-07-15T14:02:51;33.80;74.10
25716;DHT22;13573;50.936;4.328;2022-07-15T14:05:18;34.40;71.20
25716;DHT22;13573;50.936;4.328;2022-07-15T14:07:46;34.50;71.70
25716;DHT22;13573;50.936;4.328;2022-07-15T14:10:13;32.90;77.70
25716;DHT22;13573;50.936;4.328;2022-07-15T14:12:40;31.60;78.90
25716;DHT22;13573;50.936;4.328;2022-07-15T14:15:08;32.00;74.20
25716;DHT22;13573;50.936;4.328;2022-07-15T14:17:35;32.30;79.00
25716;DHT22;13573;50.936;4.328;2022-07-15T14:20:02;33.20;73.30
25716;DHT22;13573;50.936;4.328;2022-07-15T14:22:30;33.40;72.20
25716;DHT22;13573;50.936;4.328;2022-07-15T14:27:24;33.10;71.60
25716;DHT22;13573;50.936;4.328;2022-07-15T14:29:52;31.10;80.70
25716;DHT22;13573;50.936;4.328;2022-07-15T14:32:19;30.20;81.50
25716;DHT22;13573;50.936;4.328;2022-07-15T14:34:46;29.30;81.50
25716;DHT22;13573;50.936;4.328;2022-07-15T14:37:13;29.90;76.70
25716;DHT22;13573;50.936;4.328;2022-07-15T14:39:40;30.00;81.90
25716;DHT22;13573;50.936;4.328;2022-07-15T14:42:06;29.10;80.10
25716;DHT22;13573;50.936;4.328;2022-07-15T14:44:33;29.70;81.60
25716;DHT22;13573;50.936;4.328;2022-07-15T14:47:00;30.30;76.20
25716;DHT22;13573;50.936;4.328;2022-07-15T14:49:26;29.50;84.70
25716;DHT22;13573;50.936;4.328;2022-07-15T14:51:53;29.50;77.70
25716;DHT22;13573;50.936;4.328;2022-07-15T14:54:20;28.90;84.60
25716;DHT22;13573;50.936;4.328;2022-07-15T14:56:47;29.30;79.10
25716;DHT22;13573;50.936;4.328;2022-07-15T14:59:14;29.60;78.90
25716;DHT22;13573;50.936;4.328;2022-07-15T15:01:41;28.90;85.80
25716;DHT22;13573;50.936;4.328;2022-07-15T15:04:07;29.50;84.50
25716;DHT22;13573;50.936;4.328;2022-07-15T15:06:34;29.40;83.60
25716;DHT22;13573;50.936;4.328;2022-07-15T15:09:01;29.70;78.30
25716;DHT22;13573;50.936;4.328;2022-07-15T15:11:27;29.00;86.50
25716;DHT22;13573;50.936;4.328;2022-07-15T15:13:54;29.70;85.60
25716;DHT22;13573;50.936;4.328;2022-07-15T15:16:21;29.20;86.20
25716;DHT22;13573;50.936;4.328;2022-07-15T15:18:47;30.10;85.90
25716;DHT22;13573;50.936;4.328;2022-07-15T15:21:15;29.00;85.30
25716;DHT22;13573;50.936;4.328;2022-07-15T15:23:41;27.90;84.60
25716;DHT22;13573;50.936;4.328;2022-07-15T15:26:08;29.20;86.60
25716;DHT22;13573;50.936;4.328;2022-07-15T15:28:40;29.00;80.40
25716;DHT22;13573;50.936;4.328;2022-07-15T15:31:07;28.90;81.40
25716;DHT22;13573;50.936;4.328;2022-07-15T15:33:33;27.80;87.60
25716;DHT22;13573;50.936;4.328;2022-07-15T15:36:00;28.60;87.80
25716;DHT22;13573;50.936;4.328;2022-07-15T15:38:27;28.50;88.50
25716;DHT22;13573;50.936;4.328;2022-07-15T15:40:54;28.70;88.10
25716;DHT22;13573;50.936;4.328;2022-07-15T15:43:23;28.80;88.00
25716;DHT22;13573;50.936;4.328;2022-07-15T15:45:50;29.00;88.50
25716;DHT22;13573;50.936;4.328;2022-07-15T15:48:17;27.40;88.90
25716;DHT22;13573;50.936;4.328;2022-07-15T15:50:44;28.20;88.80
25716;DHT22;13573;50.936;4.328;2022-07-15T15:53:11;28.30;85.90
25716;DHT22;13573;50.936;4.328;2022-07-15T15:55:37;28.60;82.40
25716;DHT22;13573;50.936;4.328;2022-07-15T15:58:04;28.20;90.00
25716;DHT22;13573;50.936;4.328;2022-07-15T16:00:31;28.50;89.80
25716;DHT22;13573;50.936;4.328;2022-07-15T16:02:59;27.80;90.00
25716;DHT22;13573;50.936;4.328;2022-07-15T16:05:26;28.50;90.30
25716;DHT22;13573;50.936;4.328;2022-07-15T16:07:52;27.60;91.00
25716;DHT22;13573;50.936;4.328;2022-07-15T16:10:19;27.40;91.20
25716;DHT22;13573;50.936;4.328;2022-07-15T16:12:45;28.00;91.30
25716;DHT22;13573;50.936;4.328;2022-07-15T16:15:13;27.80;91.20
25716;DHT22;13573;50.936;4.328;2022-07-15T16:17:40;27.70;86.50
25716;DHT22;13573;50.936;4.328;2022-07-15T16:20:07;28.00;85.70
25716;DHT22;13573;50.936;4.328;2022-07-15T16:22:34;27.80;85.90
25716;DHT22;13573;50.936;4.328;2022-07-15T16:25:07;26.00;91.20
25716;DHT22;13573;50.936;4.328;2022-07-15T16:27:35;27.10;91.60
25716;DHT22;13573;50.936;4.328;2022-07-15T16:30:02;26.10;91.40
25716;DHT22;13573;50.936;4.328;2022-07-15T16:32:29;26.70;92.10
25716;DHT22;13573;50.936;4.328;2022-07-15T16:34:56;27.00;88.20
25716;DHT22;13573;50.936;4.328;2022-07-15T16:37:24;27.10;88.50
25716;DHT22;13573;50.936;4.328;2022-07-15T16:39:50;26.50;93.10
25716;DHT22;13573;50.936;4.328;2022-07-15T16:42:18;27.10;88.70
25716;DHT22;13573;50.936;4.328;2022-07-15T16:44:45;26.50;89.60
25716;DHT22;13573;50.936;4.328;2022-07-15T16:47:11;26.40;90.10
25716;DHT22;13573;50.936;4.328;2022-07-15T16:49:38;25.90;94.00
25716;DHT22;13573;50.936;4.328;2022-07-15T16:52:06;26.20;90.80
25716;DHT22;13573;50.936;4.328;2022-07-15T16:54:33;26.50;90.70
25716;DHT22;13573;50.936;4.328;2022-07-15T16:57:00;24.40;93.60
25716;DHT22;13573;50.936;4.328;2022-07-15T16:59:27;26.30;93.80
25716;DHT22;13573;50.936;4.328;2022-07-15T17:04:21;26.00;94.50
25716;DHT22;13573;50.936;4.328;2022-07-15T17:06:48;25.80;94.40
25716;DHT22;13573;50.936;4.328;2022-07-15T17:09:15;25.50;94.60
25716;DHT22;13573;50.936;4.328;2022-07-15T17:11:41;26.00;91.40
25716;DHT22;13573;50.936;4.328;2022-07-15T17:14:08;26.00;91.30
25716;DHT22;13573;50.936;4.328;2022-07-15T17:16:35;26.10;91.30
25716;DHT22;13573;50.936;4.328;2022-07-15T17:19:02;25.50;95.50
25716;DHT22;13573;50.936;4.328;2022-07-15T17:21:29;25.20;95.40
25716;DHT22;13573;50.936;4.328;2022-07-15T17:23:56;25.30;92.20